Time;durP1;ratioP1;P1;durP2;ratioP2;P2;SDS_P1;SDS_P2;PMS_P1;PMS_P2;Temp;Humidity;BMP_temperature;BMP_pressure;BME280_temperature;BME280_humidity;BME280_pressure;Samples;Min_cycle;Max_cycle;Signal;HPM_P1;HPM_P2
2022/12/06 00:09:14;;;;;;;6.70;4.83;;;6.10;97.90;;;;;;21086597;28;20209;-73
2022/12/06 00:19:19;;;;;;;6.03;4.50;;;6.00;98.00;;;;;;21085668;28;20230;-73
2022/12/06 00:29:22;;;;;;;8.50;4.30;;;6.00;98.10;;;;;;21085349;28;20232;-73
2022/12/06 00:39:24;;;;;;;5.70;4.50;;;6.00;98.20;;;;;;21083962;28;20279;-71
2022/12/06 00:49:26;;;;;;;6.67;4.60;;;6.00;98.30;;;;;;21083288;28;20251;-72
2022/12/06 00:59:27;;;;;;;5.77;4.07;;;6.10;98.40;;;;;;21082575;28;20855;-72
2022/12/06 01:09:31;;;;;;;5.77;4.10;;;;;;;;;;21081564;28;20209;-73
2022/12/06 01:19:33;;;;;;;6.17;4.50;;;6.20;98.40;;;;;;21081102;28;20240;-74
2022/12/06 01:29:35;;;;;;;5.93;4.53;;;;;;;;;;21080578;28;20205;-74
2022/12/06 01:39:37;;;;;;;8.53;5.13;;;6.30;98.60;;;;;;21080034;28;20226;-73
2022/12/06 01:49:41;;;;;;;8.13;5.00;;;6.40;98.60;;;;;;21079245;28;20260;-73
2022/12/06 01:59:43;;;;;;;6.43;4.93;;;6.40;98.60;;;;;;21078335;28;20233;-73
2022/12/06 02:09:46;;;;;;;8.10;4.60;;;6.40;98.60;;;;;;21078671;28;20267;-73
2022/12/06 02:19:56;;;;;;;8.40;5.97;;;6.40;98.60;;;;;;21078418;28;20235;-74
2022/12/06 02:30:11;;;;;;;7.83;5.80;;;6.50;98.60;;;;;;21094550;28;20212;-73
2022/12/06 02:40:21;;;;;;;9.40;6.23;;;6.50;98.60;;;;;;21093847;28;20239;-72
2022/12/06 02:50:31;;;;;;;9.97;6.10;;;6.50;98.70;;;;;;21093011;28;20239;-73
2022/12/06 03:00:42;;;;;;;9.40;6.53;;;6.50;98.60;;;;;;21091659;28;20296;-72
2022/12/06 03:10:52;;;;;;;8.57;6.00;;;6.50;98.70;;;;;;21091711;28;20253;-73
2022/12/06 03:21:09;;;;;;;8.73;6.47;;;6.50;98.70;;;;;;21090450;28;20231;-73
2022/12/06 03:31:12;;;;;;;8.67;5.90;;;6.40;98.80;;;;;;21089414;28;20618;-72
2022/12/06 03:41:17;;;;;;;8.63;6.70;;;6.80;99.30;;;;;;21089290;28;20266;-73
2022/12/06 03:51:28;;;;;;;10.50;6.73;;;6.40;99.20;;;;;;21088166;28;20262;-72
2022/12/06 04:01:29;;;;;;;10.17;7.23;;;6.40;99.40;;;;;;21087097;28;20273;-73
2022/12/06 04:11:31;;;;;;;9.93;6.87;;;6.40;99.50;;;;;;21086981;28;20655;-74
2022/12/06 04:52:18;;;;;;;11.30;7.13;;;6.60;99.40;;;;;;20998633;28;20202;-72
2022/12/06 05:02:20;;;;;;;10.87;7.03;;;;;;;;;;20997687;28;20301;-73
2022/12/06 05:12:22;;;;;;;9.00;6.50;;;;;;;;;;20997748;28;20207;-69
2022/12/06 05:22:24;;;;;;;8.70;6.33;;;6.60;99.40;;;;;;20996263;28;20241;-67
2022/12/06 05:32:26;;;;;;;8.23;6.27;;;6.70;99.40;;;;;;20996436;28;20236;-73
2022/12/06 05:42:27;;;;;;;7.83;6.20;;;6.60;99.30;;;;;;20994855;28;20230;-69
2022/12/06 05:52:30;;;;;;;8.63;6.53;;;;;;;;;;20994543;28;20283;-72
2022/12/06 06:02:32;;;;;;;8.33;6.47;;;6.60;99.20;;;;;;20991322;28;20237;-72
2022/12/06 06:12:33;;;;;;;7.63;5.33;;;6.60;99.20;;;;;;20992734;28;20724;-69
2022/12/06 06:22:37;;;;;;;7.57;5.27;;;5.50;98.80;;;;;;20993869;28;20233;-69
2022/12/06 06:32:39;;;;;;;6.23;4.80;;;6.50;99.30;;;;;;20993015;28;20206;-70
2022/12/06 06:42:41;;;;;;;5.67;4.73;;;;;;;;;;20994089;28;20613;-69
2022/12/06 06:52:43;;;;;;;7.17;4.70;;;;;;;;;;20992307;28;20202;-69
2022/12/06 07:02:45;;;;;;;6.50;4.57;;;6.10;99.90;;;;;;20991966;28;20242;-70
2022/12/06 07:12:48;;;;;;;8.07;4.00;;;6.10;99.90;;;;;;21002886;28;20227;-69
2022/12/06 07:22:50;;;;;;;6.63;4.30;;;;;;;;;;21005757;28;20232;-70
2022/12/06 07:32:53;;;;;;;8.57;4.10;;;6.00;99.90;;;;;;21003918;28;20206;-68
2022/12/06 07:53:16;;;;;;;4.57;2.90;;;;;;;;;;21003544;28;20209;-74
2022/12/06 08:03:18;;;;;;;7.73;4.13;;;6.00;99.90;;;;;;21001014;28;20641;-70
2022/12/06 08:13:20;;;;;;;4.27;3.47;;;;;;;;;;21001196;28;20205;-70
2022/12/06 08:23:21;;;;;;;3.60;2.40;;;5.90;99.90;;;;;;21000805;28;20282;-70
2022/12/06 08:33:24;;;;;;;2.80;2.20;;;5.90;99.90;;;;;;20999437;28;20213;-69
2022/12/06 08:43:25;;;;;;;2.43;2.13;;;5.90;99.90;;;;;;20999270;28;20258;-70
2022/12/06 08:53:27;;;;;;;4.87;3.10;;;5.80;99.90;;;;;;20998202;28;20216;-69
2022/12/06 09:03:29;;;;;;;6.43;4.30;;;5.80;99.90;;;;;;20997087;28;20302;-69
2022/12/06 09:13:32;;;;;;;5.77;4.03;;;5.80;99.90;;;;;;20996943;28;20363;-69
2022/12/06 09:23:34;;;;;;;7.57;4.10;;;6.00;99.90;;;;;;20996437;28;20286;-69
2022/12/06 09:33:37;;;;;;;6.27;3.77;;;6.00;99.90;;;;;;20995343;28;20266;-70
2022/12/06 09:44:14;;;;;;;9.80;4.63;;;6.00;99.90;;;;;;20995098;28;20232;-74
2022/12/06 09:54:21;;;;;;;6.77;4.37;;;6.00;99.80;;;;;;20995004;28;20218;-72
2022/12/06 10:04:54;;;;;;;8.27;4.27;;;6.10;99.80;;;;;;20994297;28;20713;-70
2022/12/06 10:15:07;;;;;;;10.37;4.37;;;6.10;99.30;;;;;;20994080;28;20213;-74
2022/12/06 10:25:19;;;;;;;7.30;4.73;;;5.90;99.00;;;;;;20992776;28;20294;-71
2022/12/06 10:35:40;;;;;;;6.03;4.80;;;5.80;99.10;;;;;;20993191;28;20206;-73
2022/12/06 10:56:24;;;;;;;5.73;4.63;;;5.80;99.30;;;;;;21007518;28;20575;-74
2022/12/06 11:06:44;;;;;;;6.53;4.30;;;5.80;99.00;;;;;;21007087;28;20238;-73
2022/12/06 11:17:04;;;;;;;6.03;4.77;;;5.80;98.90;;;;;;21006159;28;20208;-74
2022/12/06 11:27:15;;;;;;;7.47;5.20;;;5.70;98.80;;;;;;21090073;28;20303;-71
2022/12/06 11:37:22;;;;;;;8.63;5.53;;;5.80;98.70;;;;;;21087867;28;20269;-74
2022/12/06 11:47:24;;;;;;;7.50;5.20;;;5.80;98.60;;;;;;21085390;28;20233;-73
2022/12/06 11:57:33;;;;;;;7.90;5.07;;;6.00;98.70;;;;;;21084463;28;20678;-70
2022/12/06 12:07:35;;;;;;;6.77;5.37;;;;;;;;;;21083970;28;20283;-73
2022/12/06 12:17:43;;;;;;;6.23;5.17;;;6.10;98.40;;;;;;21084751;28;20220;-74
2022/12/06 12:27:48;;;;;;;6.80;5.20;;;6.20;98.00;;;;;;21080413;28;20243;-73
2022/12/06 12:37:54;;;;;;;9.67;5.80;;;6.20;97.80;;;;;;21083610;28;20232;-73
2022/12/06 12:48:02;;;;;;;8.50;5.67;;;6.10;98.00;;;;;;21081746;28;20744;-73
2022/12/06 12:58:08;;;;;;;8.33;6.40;;;6.30;98.00;;;;;;21080258;28;20589;-73
2022/12/06 13:08:25;;;;;;;8.60;6.63;;;6.40;97.80;;;;;;21080355;28;20236;-75
2022/12/06 13:18:30;;;;;;;8.83;6.73;;;6.20;97.70;;;;;;21079626;28;20527;-74
2022/12/06 13:28:40;;;;;;;9.13;6.60;;;6.40;97.70;;;;;;21078503;28;20240;-75
2022/12/06 13:38:42;;;;;;;9.80;7.03;;;;;;;;;;21079800;28;20717;-74
2022/12/06 13:48:53;;;;;;;9.30;6.83;;;6.30;97.70;;;;;;21078599;28;20236;-70
2022/12/06 13:58:57;;;;;;;8.00;6.10;;;6.30;97.70;;;;;;21077526;28;20309;-69
2022/12/06 14:08:59;;;;;;;7.47;5.40;;;6.20;97.60;;;;;;21077481;28;20688;-70
2022/12/06 14:19:18;;;;;;;9.10;5.37;;;6.20;97.30;;;;;;21084856;28;20274;-70
2022/12/06 14:29:22;;;;;;;6.33;4.83;;;6.10;97.40;;;;;;21093965;28;20239;-71
2022/12/06 14:39:27;;;;;;;6.70;4.33;;;6.10;97.20;;;;;;21093583;28;20270;-70
2022/12/06 14:59:56;;;;;;;5.23;3.90;;;5.50;96.90;;;;;;21091757;28;20292;-70
2022/12/06 15:10:22;;;;;;;5.40;4.27;;;6.10;97.00;;;;;;21090435;28;20208;-72
2022/12/06 15:20:24;;;;;;;7.20;4.20;;;6.10;97.10;;;;;;21088613;28;20232;-71
2022/12/06 15:30:26;;;;;;;6.27;4.53;;;;;;;;;;21088193;28;20244;-69
2022/12/06 15:40:28;;;;;;;10.33;6.37;;;;;;;;;;21088811;28;20232;-68
2022/12/06 15:50:30;;;;;;;5.63;4.20;;;;;;;;;;21087452;28;20726;-73
2022/12/06 16:00:32;;;;;;;7.40;4.47;;;6.00;97.40;;;;;;21086405;28;20228;-66
2022/12/06 16:10:34;;;;;;;6.00;4.20;;;;;;;;;;21078316;28;20663;-73
2022/12/06 16:20:56;;;;;;;6.53;4.40;;;6.00;97.40;;;;;;21086076;28;20231;-75
2022/12/06 16:30:58;;;;;;;7.00;4.80;;;;;;;;;;21084580;28;20210;-67
2022/12/06 16:41:13;;;;;;;7.70;5.10;;;6.00;97.50;;;;;;21083283;28;20247;-71
2022/12/06 16:51:14;;;;;;;7.07;5.43;;;6.00;97.60;;;;;;21082601;28;20208;-72
2022/12/06 17:01:31;;;;;;;6.30;4.87;;;6.00;97.40;;;;;;21082343;28;20301;-70
2022/12/06 17:21:55;;;;;;;5.57;4.60;;;;;;;;;;21080803;28;20237;-69
2022/12/06 17:31:57;;;;;;;7.17;4.97;;;6.00;97.50;;;;;;21079760;28;20212;-70
2022/12/06 17:52:19;;;;;;;6.90;4.90;;;6.00;97.80;;;;;;21079012;28;20212;-70
2022/12/06 18:02:22;;;;;;;7.07;5.20;;;6.00;97.70;;;;;;21078250;28;20241;-71
2022/12/06 18:12:25;;;;;;;12.67;7.87;;;6.00;97.70;;;;;;21077310;28;20202;-69
2022/12/06 18:22:34;;;;;;;9.30;6.10;;;;;;;;;;21078102;28;20641;-70
2022/12/06 18:32:36;;;;;;;8.10;5.63;;;;;;;;;;21077300;28;20209;-70
2022/12/06 18:42:38;;;;;;;11.60;6.23;;;;;;;;;;21075667;28;20237;-74
2022/12/06 18:52:40;;;;;;;10.33;6.93;;;6.00;97.80;;;;;;21076876;28;20218;-79
2022/12/06 19:02:42;;;;;;;9.87;6.37;;;2.70;96.30;;;;;;21080087;28;20709;-80
2022/12/06 19:12:45;;;;;;;8.17;5.50;;;6.00;97.90;;;;;;21093335;28;20259;-74
2022/12/06 19:22:47;;;;;;;7.27;5.57;;;5.90;97.90;;;;;;21090466;28;20633;-76
2022/12/06 19:32:49;;;;;;;7.37;5.47;;;5.90;97.90;;;;;;21089687;28;20680;-76
2022/12/06 19:53:11;;;;;;;8.70;6.03;;;;;;;;;;21088782;28;20210;-72
2022/12/06 20:03:12;;;;;;;7.77;5.70;;;5.80;98.30;;;;;;21087123;28;20258;-72
2022/12/06 20:13:15;;;;;;;7.60;5.63;;;;;;;;;;21084830;28;20208;-74
2022/12/06 20:23:16;;;;;;;10.47;6.03;;;5.90;98.60;;;;;;21083228;28;20576;-70
2022/12/06 20:33:18;;;;;;;9.03;5.67;;;5.80;98.50;;;;;;21083228;28;20214;-73
2022/12/06 20:43:20;;;;;;;8.17;5.00;;;5.80;98.70;;;;;;21082505;28;20703;-76
2022/12/06 20:53:21;;;;;;;8.90;5.97;;;5.90;98.80;;;;;;21081868;28;20208;-76
2022/12/06 21:03:25;;;;;;;11.97;7.00;;;5.80;98.70;;;;;;21081079;28;20309;-76
2022/12/06 21:13:27;;;;;;;9.73;6.37;;;5.80;98.80;;;;;;21080047;28;20214;-73
2022/12/06 21:23:30;;;;;;;9.00;6.27;;;5.80;98.80;;;;;;21079471;28;20769;-70
2022/12/06 21:33:32;;;;;;;9.87;6.50;;;5.90;98.80;;;;;;21078179;28;20260;-76
2022/12/06 21:43:35;;;;;;;9.70;6.40;;;5.80;98.80;;;;;;21077684;28;20232;-74
2022/12/06 21:53:37;;;;;;;10.70;6.73;;;5.90;98.80;;;;;;21077885;28;20212;-74
2022/12/06 22:03:39;;;;;;;11.33;6.77;;;5.90;98.90;;;;;;21091784;28;20697;-74
2022/12/06 22:13:41;;;;;;;9.80;6.40;;;6.00;99.00;;;;;;21076749;28;20657;-70
2022/12/06 22:23:43;;;;;;;10.83;6.47;;;5.90;99.00;;;;;;21076394;28;20285;-68
2022/12/06 22:33:46;;;;;;;10.47;6.83;;;6.00;99.00;;;;;;21075755;28;20722;-68
2022/12/06 22:43:53;;;;;;;8.93;6.50;;;6.00;99.00;;;;;;21089018;28;20233;-74
2022/12/06 22:53:58;;;;;;;9.87;6.57;;;6.00;99.00;;;;;;21091799;28;20217;-70
2022/12/06 23:04:01;;;;;;;9.23;6.30;;;7.00;99.40;;;;;;21090196;28;20301;-70
2022/12/06 23:14:04;;;;;;;11.13;6.67;;;;;;;;;;21072032;28;20293;-78
2022/12/06 23:24:08;;;;;;;12.07;7.30;;;5.70;98.90;;;;;;21073020;28;20253;-77
2022/12/06 23:34:17;;;;;;;11.90;7.63;;;5.40;99.10;;;;;;21090520;28;20670;-78
2022/12/06 23:44:19;;;;;;;11.97;7.33;;;5.30;99.20;;;;;;21089684;28;20687;-78
2022/12/06 23:54:21;;;;;;;10.23;7.30;;;;;;;;;;21088589;28;20204;-78
